sensor_id;sensor_type;location;lat;lon;timestamp;P1;durP1;ratioP1;P2;durP2;ratioP2
76795;SDS011;65745;50.278;18.192;2023-08-17T00:02:15;12.20;;;11.10;;
76795;SDS011;65745;50.278;18.192;2023-08-17T00:04:47;11.80;;;10.60;;
76795;SDS011;65745;50.278;18.192;2023-08-17T00:07:20;11.30;;;10.20;;
76795;SDS011;65745;50.278;18.192;2023-08-17T00:09:52;12.40;;;10.40;;
76795;SDS011;65745;50.278;18.192;2023-08-17T00:12:24;11.60;;;10.50;;
76795;SDS011;65745;50.278;18.192;2023-08-17T00:14:57;11.10;;;10.10;;
76795;SDS011;65745;50.278;18.192;2023-08-17T00:17:29;11.10;;;10.00;;
76795;SDS011;65745;50.278;18.192;2023-08-17T00:20:01;11.30;;;10.10;;
76795;SDS011;65745;50.278;18.192;2023-08-17T00:22:34;13.30;;;11.50;;
76795;SDS011;65745;50.278;18.192;2023-08-17T00:25:06;12.20;;;11.00;;
76795;SDS011;65745;50.278;18.192;2023-08-17T00:27:39;11.90;;;10.80;;
76795;SDS011;65745;50.278;18.192;2023-08-17T00:30:12;14.40;;;13.10;;
76795;SDS011;65745;50.278;18.192;2023-08-17T00:32:44;13.60;;;12.30;;
76795;SDS011;65745;50.278;18.192;2023-08-17T00:35:17;14.60;;;13.20;;
76795;SDS011;65745;50.278;18.192;2023-08-17T00:37:49;14.60;;;13.40;;
76795;SDS011;65745;50.278;18.192;2023-08-17T00:40:21;14.30;;;12.90;;
76795;SDS011;65745;50.278;18.192;2023-08-17T00:42:53;15.10;;;13.60;;
76795;SDS011;65745;50.278;18.192;2023-08-17T00:45:25;14.50;;;13.10;;
76795;SDS011;65745;50.278;18.192;2023-08-17T00:47:58;15.10;;;13.70;;
76795;SDS011;65745;50.278;18.192;2023-08-17T00:50:30;14.80;;;13.40;;
76795;SDS011;65745;50.278;18.192;2023-08-17T00:53:03;14.80;;;13.50;;
76795;SDS011;65745;50.278;18.192;2023-08-17T00:55:42;13.90;;;12.60;;
76795;SDS011;65745;50.278;18.192;2023-08-17T00:58:15;13.60;;;12.30;;
76795;SDS011;65745;50.278;18.192;2023-08-17T01:00:47;13.40;;;12.20;;
76795;SDS011;65745;50.278;18.192;2023-08-17T01:03:19;14.00;;;12.70;;
76795;SDS011;65745;50.278;18.192;2023-08-17T01:05:52;13.70;;;12.40;;
76795;SDS011;65745;50.278;18.192;2023-08-17T01:08:25;13.10;;;11.80;;
76795;SDS011;65745;50.278;18.192;2023-08-17T01:10:59;13.50;;;12.30;;
76795;SDS011;65745;50.278;18.192;2023-08-17T01:13:38;13.00;;;11.80;;
76795;SDS011;65745;50.278;18.192;2023-08-17T01:16:19;11.70;;;10.60;;
76795;SDS011;65745;50.278;18.192;2023-08-17T01:18:56;12.60;;;11.40;;
76795;SDS011;65745;50.278;18.192;2023-08-17T01:21:34;12.40;;;11.20;;
76795;SDS011;65745;50.278;18.192;2023-08-17T01:24:12;13.40;;;12.00;;
76795;SDS011;65745;50.278;18.192;2023-08-17T01:26:44;12.10;;;11.00;;
76795;SDS011;65745;50.278;18.192;2023-08-17T01:29:16;13.50;;;12.10;;
76795;SDS011;65745;50.278;18.192;2023-08-17T01:31:50;11.30;;;10.10;;
76795;SDS011;65745;50.278;18.192;2023-08-17T01:34:27;11.80;;;10.60;;
76795;SDS011;65745;50.278;18.192;2023-08-17T01:39:38;11.70;;;10.60;;
76795;SDS011;65745;50.278;18.192;2023-08-17T01:42:14;11.30;;;10.20;;
76795;SDS011;65745;50.278;18.192;2023-08-17T01:44:46;11.10;;;10.10;;
76795;SDS011;65745;50.278;18.192;2023-08-17T01:47:21;11.40;;;10.40;;
76795;SDS011;65745;50.278;18.192;2023-08-17T01:49:54;10.70;;;9.70;;
76795;SDS011;65745;50.278;18.192;2023-08-17T01:52:28;10.90;;;9.80;;
76795;SDS011;65745;50.278;18.192;2023-08-17T01:55:00;11.40;;;10.20;;
76795;SDS011;65745;50.278;18.192;2023-08-17T01:57:32;11.30;;;10.00;;
76795;SDS011;65745;50.278;18.192;2023-08-17T02:00:07;11.80;;;10.60;;
76795;SDS011;65745;50.278;18.192;2023-08-17T02:02:43;10.30;;;9.30;;
76795;SDS011;65745;50.278;18.192;2023-08-17T02:05:15;10.20;;;9.20;;
76795;SDS011;65745;50.278;18.192;2023-08-17T02:07:47;9.90;;;9.00;;
76795;SDS011;65745;50.278;18.192;2023-08-17T02:10:20;10.70;;;9.60;;
76795;SDS011;65745;50.278;18.192;2023-08-17T02:12:52;9.90;;;9.00;;
76795;SDS011;65745;50.278;18.192;2023-08-17T02:15:39;9.60;;;8.60;;
76795;SDS011;65745;50.278;18.192;2023-08-17T02:18:11;11.60;;;9.90;;
76795;SDS011;65745;50.278;18.192;2023-08-17T02:20:43;10.10;;;9.20;;
76795;SDS011;65745;50.278;18.192;2023-08-17T02:23:15;10.90;;;9.80;;
76795;SDS011;65745;50.278;18.192;2023-08-17T02:25:47;11.50;;;10.40;;
76795;SDS011;65745;50.278;18.192;2023-08-17T02:28:21;11.20;;;9.90;;
76795;SDS011;65745;50.278;18.192;2023-08-17T02:30:56;11.00;;;9.90;;
76795;SDS011;65745;50.278;18.192;2023-08-17T02:33:29;11.50;;;10.30;;
76795;SDS011;65745;50.278;18.192;2023-08-17T02:36:02;11.30;;;10.20;;
76795;SDS011;65745;50.278;18.192;2023-08-17T02:38:35;11.90;;;10.70;;
76795;SDS011;65745;50.278;18.192;2023-08-17T02:41:07;11.20;;;10.10;;
76795;SDS011;65745;50.278;18.192;2023-08-17T02:43:39;10.70;;;9.60;;
76795;SDS011;65745;50.278;18.192;2023-08-17T02:46:11;10.40;;;9.50;;
76795;SDS011;65745;50.278;18.192;2023-08-17T02:48:43;10.50;;;9.20;;
76795;SDS011;65745;50.278;18.192;2023-08-17T02:51:16;11.70;;;10.50;;
76795;SDS011;65745;50.278;18.192;2023-08-17T02:53:48;11.50;;;10.30;;
76795;SDS011;65745;50.278;18.192;2023-08-17T02:56:20;10.10;;;9.10;;
76795;SDS011;65745;50.278;18.192;2023-08-17T02:58:52;10.20;;;9.20;;
76795;SDS011;65745;50.278;18.192;2023-08-17T03:01:24;9.40;;;8.10;;
76795;SDS011;65745;50.278;18.192;2023-08-17T03:03:58;10.40;;;9.20;;
76795;SDS011;65745;50.278;18.192;2023-08-17T03:06:31;11.00;;;8.80;;
76795;SDS011;65745;50.278;18.192;2023-08-17T03:09:04;10.30;;;8.90;;
76795;SDS011;65745;50.278;18.192;2023-08-17T03:11:36;11.20;;;9.80;;
76795;SDS011;65745;50.278;18.192;2023-08-17T03:14:08;9.10;;;8.20;;
76795;SDS011;65745;50.278;18.192;2023-08-17T03:16:40;9.60;;;8.60;;
76795;SDS011;65745;50.278;18.192;2023-08-17T03:19:12;10.50;;;8.90;;
76795;SDS011;65745;50.278;18.192;2023-08-17T03:21:45;10.60;;;9.40;;
76795;SDS011;65745;50.278;18.192;2023-08-17T03:24:17;11.20;;;9.40;;
76795;SDS011;65745;50.278;18.192;2023-08-17T03:26:49;10.60;;;8.50;;
76795;SDS011;65745;50.278;18.192;2023-08-17T03:29:21;11.20;;;8.90;;
76795;SDS011;65745;50.278;18.192;2023-08-17T03:31:53;9.60;;;8.60;;
76795;SDS011;65745;50.278;18.192;2023-08-17T03:34:25;9.90;;;8.90;;
76795;SDS011;65745;50.278;18.192;2023-08-17T03:36:57;11.60;;;9.00;;
76795;SDS011;65745;50.278;18.192;2023-08-17T03:39:30;9.50;;;8.30;;
76795;SDS011;65745;50.278;18.192;2023-08-17T03:42:02;10.10;;;9.10;;
76795;SDS011;65745;50.278;18.192;2023-08-17T03:44:34;11.10;;;8.70;;
76795;SDS011;65745;50.278;18.192;2023-08-17T03:47:07;9.80;;;8.80;;
76795;SDS011;65745;50.278;18.192;2023-08-17T03:49:39;10.30;;;9.30;;
76795;SDS011;65745;50.278;18.192;2023-08-17T03:52:11;9.60;;;8.60;;
76795;SDS011;65745;50.278;18.192;2023-08-17T03:54:42;10.60;;;9.60;;
76795;SDS011;65745;50.278;18.192;2023-08-17T03:57:15;11.50;;;8.90;;
76795;SDS011;65745;50.278;18.192;2023-08-17T03:59:47;9.50;;;8.50;;
76795;SDS011;65745;50.278;18.192;2023-08-17T04:02:19;10.70;;;9.20;;
76795;SDS011;65745;50.278;18.192;2023-08-17T04:04:51;9.60;;;8.60;;
76795;SDS011;65745;50.278;18.192;2023-08-17T04:07:23;11.90;;;9.30;;
76795;SDS011;65745;50.278;18.192;2023-08-17T04:09:56;9.70;;;8.60;;
76795;SDS011;65745;50.278;18.192;2023-08-17T04:12:29;9.60;;;8.60;;
76795;SDS011;65745;50.278;18.192;2023-08-17T04:15:01;9.50;;;8.60;;
76795;SDS011;65745;50.278;18.192;2023-08-17T04:17:34;11.50;;;9.50;;
76795;SDS011;65745;50.278;18.192;2023-08-17T04:20:07;9.70;;;8.70;;
76795;SDS011;65745;50.278;18.192;2023-08-17T04:22:40;11.50;;;9.60;;
76795;SDS011;65745;50.278;18.192;2023-08-17T04:25:13;10.00;;;8.90;;
76795;SDS011;65745;50.278;18.192;2023-08-17T04:27:45;12.10;;;10.60;;
76795;SDS011;65745;50.278;18.192;2023-08-17T04:30:17;11.30;;;9.80;;
76795;SDS011;65745;50.278;18.192;2023-08-17T04:32:54;11.80;;;9.80;;
76795;SDS011;65745;50.278;18.192;2023-08-17T04:35:27;11.70;;;10.00;;
76795;SDS011;65745;50.278;18.192;2023-08-17T04:37:59;14.10;;;10.70;;
76795;SDS011;65745;50.278;18.192;2023-08-17T04:40:31;13.30;;;11.10;;
76795;SDS011;65745;50.278;18.192;2023-08-17T04:43:03;12.40;;;11.10;;
76795;SDS011;65745;50.278;18.192;2023-08-17T04:45:35;12.10;;;10.90;;
76795;SDS011;65745;50.278;18.192;2023-08-17T04:48:07;15.00;;;12.10;;
76795;SDS011;65745;50.278;18.192;2023-08-17T04:50:39;12.70;;;11.40;;
76795;SDS011;65745;50.278;18.192;2023-08-17T04:53:11;11.70;;;9.90;;
76795;SDS011;65745;50.278;18.192;2023-08-17T04:55:43;12.80;;;10.50;;
76795;SDS011;65745;50.278;18.192;2023-08-17T04:58:15;10.00;;;9.00;;
76795;SDS011;65745;50.278;18.192;2023-08-17T05:00:48;11.40;;;9.80;;
76795;SDS011;65745;50.278;18.192;2023-08-17T05:03:20;9.70;;;8.70;;
76795;SDS011;65745;50.278;18.192;2023-08-17T05:06:02;11.10;;;8.00;;
76795;SDS011;65745;50.278;18.192;2023-08-17T05:08:34;9.90;;;7.50;;
76795;SDS011;65745;50.278;18.192;2023-08-17T05:11:06;8.60;;;7.50;;
76795;SDS011;65745;50.278;18.192;2023-08-17T05:13:39;7.90;;;7.10;;
76795;SDS011;65745;50.278;18.192;2023-08-17T05:16:11;8.30;;;6.40;;
76795;SDS011;65745;50.278;18.192;2023-08-17T05:18:43;9.50;;;6.80;;
76795;SDS011;65745;50.278;18.192;2023-08-17T05:21:16;8.10;;;7.00;;
76795;SDS011;65745;50.278;18.192;2023-08-17T05:23:48;7.30;;;6.60;;
76795;SDS011;65745;50.278;18.192;2023-08-17T05:26:20;8.90;;;7.90;;
76795;SDS011;65745;50.278;18.192;2023-08-17T05:28:52;7.90;;;6.80;;
76795;SDS011;65745;50.278;18.192;2023-08-17T05:31:25;6.70;;;6.00;;
76795;SDS011;65745;50.278;18.192;2023-08-17T05:33:58;6.80;;;6.10;;
76795;SDS011;65745;50.278;18.192;2023-08-17T05:36:30;7.70;;;6.90;;
76795;SDS011;65745;50.278;18.192;2023-08-17T05:39:02;7.80;;;6.80;;
76795;SDS011;65745;50.278;18.192;2023-08-17T05:41:34;7.00;;;6.10;;
76795;SDS011;65745;50.278;18.192;2023-08-17T05:44:06;7.40;;;6.10;;
76795;SDS011;65745;50.278;18.192;2023-08-17T05:46:39;7.20;;;6.40;;
76795;SDS011;65745;50.278;18.192;2023-08-17T05:49:11;7.10;;;6.20;;
76795;SDS011;65745;50.278;18.192;2023-08-17T05:51:43;7.30;;;6.70;;
76795;SDS011;65745;50.278;18.192;2023-08-17T05:54:15;7.00;;;6.30;;
76795;SDS011;65745;50.278;18.192;2023-08-17T05:56:47;9.80;;;6.30;;
76795;SDS011;65745;50.278;18.192;2023-08-17T05:59:19;6.40;;;5.80;;
76795;SDS011;65745;50.278;18.192;2023-08-17T06:01:51;7.50;;;6.10;;
76795;SDS011;65745;50.278;18.192;2023-08-17T06:04:23;8.30;;;6.40;;
76795;SDS011;65745;50.278;18.192;2023-08-17T06:06:56;7.50;;;6.70;;
76795;SDS011;65745;50.278;18.192;2023-08-17T06:09:28;6.90;;;5.90;;
76795;SDS011;65745;50.278;18.192;2023-08-17T06:12:00;7.10;;;6.40;;
76795;SDS011;65745;50.278;18.192;2023-08-17T06:14:32;7.00;;;6.10;;
76795;SDS011;65745;50.278;18.192;2023-08-17T06:17:04;9.10;;;7.00;;
76795;SDS011;65745;50.278;18.192;2023-08-17T06:19:36;7.40;;;6.60;;
76795;SDS011;65745;50.278;18.192;2023-08-17T06:22:09;7.70;;;6.50;;
76795;SDS011;65745;50.278;18.192;2023-08-17T06:24:41;8.20;;;7.40;;
76795;SDS011;65745;50.278;18.192;2023-08-17T06:27:13;7.30;;;6.50;;
76795;SDS011;65745;50.278;18.192;2023-08-17T06:29:46;7.30;;;6.50;;
76795;SDS011;65745;50.278;18.192;2023-08-17T06:32:18;7.40;;;6.50;;
76795;SDS011;65745;50.278;18.192;2023-08-17T06:34:50;8.50;;;6.50;;
76795;SDS011;65745;50.278;18.192;2023-08-17T06:37:23;8.90;;;7.70;;
76795;SDS011;65745;50.278;18.192;2023-08-17T06:39:55;7.80;;;6.40;;
76795;SDS011;65745;50.278;18.192;2023-08-17T06:42:27;9.00;;;7.00;;
76795;SDS011;65745;50.278;18.192;2023-08-17T06:44:59;8.50;;;7.50;;
76795;SDS011;65745;50.278;18.192;2023-08-17T06:47:32;10.00;;;7.80;;
76795;SDS011;65745;50.278;18.192;2023-08-17T06:50:04;7.90;;;7.20;;
76795;SDS011;65745;50.278;18.192;2023-08-17T06:52:40;10.20;;;8.20;;
76795;SDS011;65745;50.278;18.192;2023-08-17T06:55:12;7.80;;;7.00;;
76795;SDS011;65745;50.278;18.192;2023-08-17T06:57:46;11.60;;;7.30;;
76795;SDS011;65745;50.278;18.192;2023-08-17T07:00:21;10.10;;;8.30;;
76795;SDS011;65745;50.278;18.192;2023-08-17T07:02:53;8.80;;;7.90;;
76795;SDS011;65745;50.278;18.192;2023-08-17T07:05:29;12.30;;;11.00;;
76795;SDS011;65745;50.278;18.192;2023-08-17T07:08:01;12.90;;;11.60;;
76795;SDS011;65745;50.278;18.192;2023-08-17T07:10:33;12.10;;;10.60;;
76795;SDS011;65745;50.278;18.192;2023-08-17T07:13:05;12.20;;;11.00;;
76795;SDS011;65745;50.278;18.192;2023-08-17T07:15:37;14.00;;;12.60;;
76795;SDS011;65745;50.278;18.192;2023-08-17T07:18:10;12.00;;;10.90;;
76795;SDS011;65745;50.278;18.192;2023-08-17T07:20:44;13.60;;;11.50;;
76795;SDS011;65745;50.278;18.192;2023-08-17T07:23:16;12.00;;;10.90;;
76795;SDS011;65745;50.278;18.192;2023-08-17T07:25:48;11.00;;;9.80;;
76795;SDS011;65745;50.278;18.192;2023-08-17T07:28:20;11.40;;;10.30;;
76795;SDS011;65745;50.278;18.192;2023-08-17T07:30:52;12.70;;;11.50;;
76795;SDS011;65745;50.278;18.192;2023-08-17T07:33:24;12.50;;;11.10;;
76795;SDS011;65745;50.278;18.192;2023-08-17T07:35:56;12.10;;;10.90;;
76795;SDS011;65745;50.278;18.192;2023-08-17T07:38:30;14.00;;;12.60;;
76795;SDS011;65745;50.278;18.192;2023-08-17T07:41:02;12.00;;;10.90;;
76795;SDS011;65745;50.278;18.192;2023-08-17T07:43:36;12.80;;;11.50;;
76795;SDS011;65745;50.278;18.192;2023-08-17T07:46:08;12.50;;;11.20;;
76795;SDS011;65745;50.278;18.192;2023-08-17T07:48:40;12.20;;;11.20;;
76795;SDS011;65745;50.278;18.192;2023-08-17T07:51:12;13.10;;;11.90;;
76795;SDS011;65745;50.278;18.192;2023-08-17T07:53:45;12.30;;;11.20;;
76795;SDS011;65745;50.278;18.192;2023-08-17T07:56:17;13.30;;;12.00;;
76795;SDS011;65745;50.278;18.192;2023-08-17T07:58:49;12.60;;;11.40;;
76795;SDS011;65745;50.278;18.192;2023-08-17T08:01:21;13.50;;;12.00;;
76795;SDS011;65745;50.278;18.192;2023-08-17T08:03:53;12.30;;;11.20;;
76795;SDS011;65745;50.278;18.192;2023-08-17T08:06:25;13.00;;;10.90;;
76795;SDS011;65745;50.278;18.192;2023-08-17T08:08:57;12.70;;;11.40;;
76795;SDS011;65745;50.278;18.192;2023-08-17T08:11:29;11.80;;;10.70;;
76795;SDS011;65745;50.278;18.192;2023-08-17T08:14:01;12.70;;;11.50;;
76795;SDS011;65745;50.278;18.192;2023-08-17T08:16:34;11.20;;;10.20;;
76795;SDS011;65745;50.278;18.192;2023-08-17T08:19:06;12.00;;;10.80;;
76795;SDS011;65745;50.278;18.192;2023-08-17T08:21:38;11.10;;;9.90;;
76795;SDS011;65745;50.278;18.192;2023-08-17T08:24:10;11.30;;;10.30;;
76795;SDS011;65745;50.278;18.192;2023-08-17T08:26:59;12.00;;;10.80;;
76795;SDS011;65745;50.278;18.192;2023-08-17T08:29:31;11.40;;;10.40;;
76795;SDS011;65745;50.278;18.192;2023-08-17T08:32:04;10.90;;;9.70;;
76795;SDS011;65745;50.278;18.192;2023-08-17T08:34:36;11.80;;;10.60;;
76795;SDS011;65745;50.278;18.192;2023-08-17T08:37:08;12.60;;;11.40;;
76795;SDS011;65745;50.278;18.192;2023-08-17T08:39:50;11.10;;;9.90;;
76795;SDS011;65745;50.278;18.192;2023-08-17T08:42:24;11.70;;;10.50;;
76795;SDS011;65745;50.278;18.192;2023-08-17T08:44:56;10.70;;;9.60;;
76795;SDS011;65745;50.278;18.192;2023-08-17T08:47:29;10.60;;;9.60;;
76795;SDS011;65745;50.278;18.192;2023-08-17T08:52:36;10.90;;;9.70;;
76795;SDS011;65745;50.278;18.192;2023-08-17T08:55:20;10.50;;;9.60;;
76795;SDS011;65745;50.278;18.192;2023-08-17T08:57:54;13.90;;;9.20;;
76795;SDS011;65745;50.278;18.192;2023-08-17T09:00:32;10.10;;;9.10;;
76795;SDS011;65745;50.278;18.192;2023-08-17T09:03:08;10.00;;;9.00;;
76795;SDS011;65745;50.278;18.192;2023-08-17T09:05:41;10.50;;;9.50;;
76795;SDS011;65745;50.278;18.192;2023-08-17T09:08:15;11.00;;;9.70;;
76795;SDS011;65745;50.278;18.192;2023-08-17T09:10:49;10.40;;;9.40;;
76795;SDS011;65745;50.278;18.192;2023-08-17T09:13:21;12.10;;;10.60;;
76795;SDS011;65745;50.278;18.192;2023-08-17T09:15:53;10.70;;;9.70;;
76795;SDS011;65745;50.278;18.192;2023-08-17T09:20:59;14.50;;;9.90;;
76795;SDS011;65745;50.278;18.192;2023-08-17T09:23:32;11.80;;;10.60;;
76795;SDS011;65745;50.278;18.192;2023-08-17T09:26:07;11.70;;;10.20;;
76795;SDS011;65745;50.278;18.192;2023-08-17T09:28:40;10.60;;;9.60;;
76795;SDS011;65745;50.278;18.192;2023-08-17T09:31:12;11.40;;;10.30;;
76795;SDS011;65745;50.278;18.192;2023-08-17T09:33:48;10.40;;;9.60;;
76795;SDS011;65745;50.278;18.192;2023-08-17T09:36:21;11.00;;;10.00;;
76795;SDS011;65745;50.278;18.192;2023-08-17T09:38:53;11.20;;;10.10;;
76795;SDS011;65745;50.278;18.192;2023-08-17T09:41:27;11.40;;;10.20;;
76795;SDS011;65745;50.278;18.192;2023-08-17T09:43:59;11.10;;;10.00;;
76795;SDS011;65745;50.278;18.192;2023-08-17T09:46:32;10.30;;;9.40;;
76795;SDS011;65745;50.278;18.192;2023-08-17T09:49:05;11.90;;;10.80;;
76795;SDS011;65745;50.278;18.192;2023-08-17T09:51:38;12.20;;;11.00;;
76795;SDS011;65745;50.278;18.192;2023-08-17T09:54:21;10.80;;;9.70;;
76795;SDS011;65745;50.278;18.192;2023-08-17T09:56:57;11.30;;;10.30;;
76795;SDS011;65745;50.278;18.192;2023-08-17T09:59:29;12.50;;;11.20;;
76795;SDS011;65745;50.278;18.192;2023-08-17T10:02:10;12.60;;;11.40;;
76795;SDS011;65745;50.278;18.192;2023-08-17T10:04:49;13.00;;;11.60;;
76795;SDS011;65745;50.278;18.192;2023-08-17T10:07:24;13.00;;;11.80;;
76795;SDS011;65745;50.278;18.192;2023-08-17T10:10:04;12.50;;;11.20;;
76795;SDS011;65745;50.278;18.192;2023-08-17T10:12:37;12.00;;;11.00;;
76795;SDS011;65745;50.278;18.192;2023-08-17T10:15:19;13.30;;;12.10;;
76795;SDS011;65745;50.278;18.192;2023-08-17T10:17:55;14.20;;;12.80;;
76795;SDS011;65745;50.278;18.192;2023-08-17T10:20:34;14.50;;;11.20;;
76795;SDS011;65745;50.278;18.192;2023-08-17T10:23:10;12.40;;;11.30;;
76795;SDS011;65745;50.278;18.192;2023-08-17T10:25:46;13.50;;;12.20;;
76795;SDS011;65745;50.278;18.192;2023-08-17T10:28:19;11.50;;;10.50;;
76795;SDS011;65745;50.278;18.192;2023-08-17T10:30:52;16.90;;;11.50;;
76795;SDS011;65745;50.278;18.192;2023-08-17T10:33:25;12.10;;;10.30;;
76795;SDS011;65745;50.278;18.192;2023-08-17T10:35:59;13.00;;;11.80;;
76795;SDS011;65745;50.278;18.192;2023-08-17T10:38:32;12.70;;;11.60;;
76795;SDS011;65745;50.278;18.192;2023-08-17T10:41:11;11.70;;;10.70;;
76795;SDS011;65745;50.278;18.192;2023-08-17T10:43:56;12.70;;;11.40;;
76795;SDS011;65745;50.278;18.192;2023-08-17T10:46:33;12.00;;;11.00;;
76795;SDS011;65745;50.278;18.192;2023-08-17T10:49:24;10.50;;;9.40;;
76795;SDS011;65745;50.278;18.192;2023-08-17T10:52:04;10.20;;;9.20;;
76795;SDS011;65745;50.278;18.192;2023-08-17T10:54:38;9.80;;;8.80;;
76795;SDS011;65745;50.278;18.192;2023-08-17T10:57:31;9.10;;;8.30;;
76795;SDS011;65745;50.278;18.192;2023-08-17T11:00:17;9.10;;;8.20;;
76795;SDS011;65745;50.278;18.192;2023-08-17T11:02:56;10.00;;;9.00;;
76795;SDS011;65745;50.278;18.192;2023-08-17T11:05:36;9.20;;;8.50;;
76795;SDS011;65745;50.278;18.192;2023-08-17T11:08:11;8.80;;;7.90;;
76795;SDS011;65745;50.278;18.192;2023-08-17T11:10:51;7.70;;;7.00;;
76795;SDS011;65745;50.278;18.192;2023-08-17T11:13:32;8.30;;;7.50;;
76795;SDS011;65745;50.278;18.192;2023-08-17T11:16:06;8.50;;;7.70;;
76795;SDS011;65745;50.278;18.192;2023-08-17T11:18:42;8.50;;;7.10;;
76795;SDS011;65745;50.278;18.192;2023-08-17T11:21:15;8.40;;;7.60;;
76795;SDS011;65745;50.278;18.192;2023-08-17T11:23:48;8.70;;;7.80;;
76795;SDS011;65745;50.278;18.192;2023-08-17T11:26:20;7.90;;;7.10;;
76795;SDS011;65745;50.278;18.192;2023-08-17T11:28:53;8.80;;;6.90;;
76795;SDS011;65745;50.278;18.192;2023-08-17T11:31:25;6.60;;;6.00;;
76795;SDS011;65745;50.278;18.192;2023-08-17T11:33:57;6.50;;;5.90;;
76795;SDS011;65745;50.278;18.192;2023-08-17T11:36:30;6.70;;;6.00;;
76795;SDS011;65745;50.278;18.192;2023-08-17T11:39:03;7.10;;;6.40;;
76795;SDS011;65745;50.278;18.192;2023-08-17T11:41:39;7.60;;;6.90;;
76795;SDS011;65745;50.278;18.192;2023-08-17T11:44:12;7.20;;;6.60;;
76795;SDS011;65745;50.278;18.192;2023-08-17T11:46:45;6.60;;;6.00;;
76795;SDS011;65745;50.278;18.192;2023-08-17T11:49:18;7.30;;;6.60;;
76795;SDS011;65745;50.278;18.192;2023-08-17T11:51:52;7.80;;;7.20;;
76795;SDS011;65745;50.278;18.192;2023-08-17T11:54:24;7.40;;;6.60;;
76795;SDS011;65745;50.278;18.192;2023-08-17T11:56:57;7.20;;;6.50;;
76795;SDS011;65745;50.278;18.192;2023-08-17T11:59:33;7.30;;;6.50;;
76795;SDS011;65745;50.278;18.192;2023-08-17T12:02:05;6.90;;;6.20;;
76795;SDS011;65745;50.278;18.192;2023-08-17T12:04:39;6.30;;;5.70;;
76795;SDS011;65745;50.278;18.192;2023-08-17T12:07:14;7.00;;;6.30;;
76795;SDS011;65745;50.278;18.192;2023-08-17T12:09:47;7.60;;;5.80;;
76795;SDS011;65745;50.278;18.192;2023-08-17T12:12:21;8.50;;;6.50;;
76795;SDS011;65745;50.278;18.192;2023-08-17T12:14:54;7.80;;;6.30;;
76795;SDS011;65745;50.278;18.192;2023-08-17T12:17:27;7.40;;;6.70;;
76795;SDS011;65745;50.278;18.192;2023-08-17T12:19:59;7.00;;;6.20;;
76795;SDS011;65745;50.278;18.192;2023-08-17T12:22:31;7.10;;;6.40;;
76795;SDS011;65745;50.278;18.192;2023-08-17T12:25:03;7.30;;;6.50;;
76795;SDS011;65745;50.278;18.192;2023-08-17T12:27:38;7.10;;;6.40;;
76795;SDS011;65745;50.278;18.192;2023-08-17T12:30:13;6.60;;;6.00;;
76795;SDS011;65745;50.278;18.192;2023-08-17T12:32:57;7.00;;;6.30;;
76795;SDS011;65745;50.278;18.192;2023-08-17T12:35:29;11.70;;;5.90;;
76795;SDS011;65745;50.278;18.192;2023-08-17T12:38:02;13.50;;;8.60;;
76795;SDS011;65745;50.278;18.192;2023-08-17T12:43:02;9.90;;;6.80;;
76795;SDS011;65745;50.278;18.192;2023-08-17T12:45:34;10.50;;;7.90;;
76795;SDS011;65745;50.278;18.192;2023-08-17T12:48:06;11.50;;;9.20;;
76795;SDS011;65745;50.278;18.192;2023-08-17T12:51:06;11.10;;;10.10;;
76795;SDS011;65745;50.278;18.192;2023-08-17T12:53:38;11.60;;;10.50;;
76795;SDS011;65745;50.278;18.192;2023-08-17T12:56:11;10.80;;;9.70;;
76795;SDS011;65745;50.278;18.192;2023-08-17T12:58:43;13.40;;;9.10;;
76795;SDS011;65745;50.278;18.192;2023-08-17T13:01:15;9.60;;;8.70;;
76795;SDS011;65745;50.278;18.192;2023-08-17T13:03:48;8.30;;;7.50;;
76795;SDS011;65745;50.278;18.192;2023-08-17T13:06:20;10.20;;;8.60;;
76795;SDS011;65745;50.278;18.192;2023-08-17T13:08:55;9.90;;;8.70;;
76795;SDS011;65745;50.278;18.192;2023-08-17T13:11:27;9.30;;;8.20;;
76795;SDS011;65745;50.278;18.192;2023-08-17T13:13:59;8.60;;;7.60;;
76795;SDS011;65745;50.278;18.192;2023-08-17T13:16:31;9.40;;;7.90;;
76795;SDS011;65745;50.278;18.192;2023-08-17T13:19:03;11.00;;;8.30;;
76795;SDS011;65745;50.278;18.192;2023-08-17T13:21:35;10.40;;;8.70;;
76795;SDS011;65745;50.278;18.192;2023-08-17T13:24:07;8.70;;;7.30;;
76795;SDS011;65745;50.278;18.192;2023-08-17T13:26:40;10.20;;;8.00;;
76795;SDS011;65745;50.278;18.192;2023-08-17T13:29:14;7.90;;;7.10;;
76795;SDS011;65745;50.278;18.192;2023-08-17T13:31:47;11.80;;;9.30;;
76795;SDS011;65745;50.278;18.192;2023-08-17T13:34:19;10.80;;;8.60;;
76795;SDS011;65745;50.278;18.192;2023-08-17T13:36:51;11.10;;;8.80;;
76795;SDS011;65745;50.278;18.192;2023-08-17T13:39:23;10.30;;;8.70;;
76795;SDS011;65745;50.278;18.192;2023-08-17T13:41:55;13.00;;;9.10;;
76795;SDS011;65745;50.278;18.192;2023-08-17T13:44:27;10.60;;;9.40;;
76795;SDS011;65745;50.278;18.192;2023-08-17T13:46:59;11.30;;;10.10;;
76795;SDS011;65745;50.278;18.192;2023-08-17T13:49:31;11.10;;;9.60;;
76795;SDS011;65745;50.278;18.192;2023-08-17T13:52:04;10.90;;;9.60;;
76795;SDS011;65745;50.278;18.192;2023-08-17T13:54:36;10.00;;;9.00;;
76795;SDS011;65745;50.278;18.192;2023-08-17T13:57:08;11.50;;;10.30;;
76795;SDS011;65745;50.278;18.192;2023-08-17T13:59:41;11.50;;;10.30;;
76795;SDS011;65745;50.278;18.192;2023-08-17T14:02:13;13.10;;;11.70;;
76795;SDS011;65745;50.278;18.192;2023-08-17T14:04:45;11.80;;;10.60;;
76795;SDS011;65745;50.278;18.192;2023-08-17T14:07:17;12.80;;;10.00;;
76795;SDS011;65745;50.278;18.192;2023-08-17T14:09:49;11.30;;;10.20;;
76795;SDS011;65745;50.278;18.192;2023-08-17T14:15:08;11.50;;;10.40;;
76795;SDS011;65745;50.278;18.192;2023-08-17T14:17:41;11.70;;;10.50;;
76795;SDS011;65745;50.278;18.192;2023-08-17T14:20:13;12.00;;;10.70;;
76795;SDS011;65745;50.278;18.192;2023-08-17T14:22:45;11.20;;;8.90;;
76795;SDS011;65745;50.278;18.192;2023-08-17T14:25:17;15.50;;;10.70;;
76795;SDS011;65745;50.278;18.192;2023-08-17T14:27:49;10.50;;;9.50;;
76795;SDS011;65745;50.278;18.192;2023-08-17T14:30:21;10.80;;;9.70;;
76795;SDS011;65745;50.278;18.192;2023-08-17T14:32:55;10.60;;;9.50;;
76795;SDS011;65745;50.278;18.192;2023-08-17T14:35:29;11.80;;;10.60;;
76795;SDS011;65745;50.278;18.192;2023-08-17T14:38:01;12.20;;;9.90;;
76795;SDS011;65745;50.278;18.192;2023-08-17T14:40:35;11.40;;;10.00;;
76795;SDS011;65745;50.278;18.192;2023-08-17T14:43:11;11.70;;;10.20;;
76795;SDS011;65745;50.278;18.192;2023-08-17T14:45:44;11.60;;;9.40;;
76795;SDS011;65745;50.278;18.192;2023-08-17T14:48:16;13.80;;;10.80;;
76795;SDS011;65745;50.278;18.192;2023-08-17T14:50:50;12.20;;;11.00;;
76795;SDS011;65745;50.278;18.192;2023-08-17T14:53:22;12.60;;;11.40;;
76795;SDS011;65745;50.278;18.192;2023-08-17T14:55:54;12.60;;;11.10;;
76795;SDS011;65745;50.278;18.192;2023-08-17T14:58:26;13.20;;;11.80;;
76795;SDS011;65745;50.278;18.192;2023-08-17T15:00:59;12.60;;;11.40;;
76795;SDS011;65745;50.278;18.192;2023-08-17T15:03:32;13.90;;;11.90;;
76795;SDS011;65745;50.278;18.192;2023-08-17T15:06:04;12.50;;;11.20;;
76795;SDS011;65745;50.278;18.192;2023-08-17T15:08:52;12.20;;;11.00;;
76795;SDS011;65745;50.278;18.192;2023-08-17T15:11:24;16.10;;;10.90;;